Time;durP1;ratioP1;P1;durP2;ratioP2;P2;SDS_P1;SDS_P2;PMS_P1;PMS_P2;Temp;Humidity;BMP_temperature;BMP_pressure;BME280_temperature;BME280_humidity;BME280_pressure;Samples;Min_cycle;Max_cycle;Signal;HPM_P1;HPM_P2
2023/12/09 00:00:24;;;;;;;8.45;3.05;;;;;;;;;;4954432;28;88316;-88
2023/12/09 00:02:51;;;;;;;8.80;3.50;;;;;;;;;;4950825;28;87334;-89
2023/12/09 00:05:17;;;;;;;7.60;3.30;;;;;;;;;;4950936;28;88505;-88
2023/12/09 00:07:44;;;;;;;10.05;3.20;;;;;;;;;;4948223;28;87780;-87
2023/12/09 00:10:10;;;;;;;9.60;3.20;;;;;;;;;;4949063;28;88494;-88
2023/12/09 00:12:37;;;;;;;8.48;3.10;;;;;;;;;;4949570;28;88396;-87
2023/12/09 00:15:04;;;;;;;8.85;2.90;;;;;;;;;;4948017;28;89891;-87
2023/12/09 00:17:32;;;;;;;9.70;3.38;;;;;;;;;;4948293;28;88115;-87
2023/12/09 00:19:59;;;;;;;11.25;3.00;;;;;;;;;;4948372;28;91097;-87
2023/12/09 00:22:26;;;;;;;9.48;2.95;;;;;;;;;;4952995;28;89937;-87
2023/12/09 00:24:53;;;;;;;10.32;2.90;;;;;;;;;;4944053;28;88307;-87
2023/12/09 00:27:20;;;;;;;11.32;3.35;;;;;;;;;;4932804;28;87120;-87
2023/12/09 00:29:47;;;;;;;11.20;2.90;;;;;;;;;;4930511;28;87575;-85
2023/12/09 00:32:14;;;;;;;9.27;3.00;;;;;;;;;;4914335;28;90503;-86
2023/12/09 00:34:40;;;;;;;12.68;3.30;;;;;;;;;;4914215;28;89432;-86
2023/12/09 00:37:07;;;;;;;11.98;3.40;;;;;;;;;;4930540;28;91540;-86
2023/12/09 00:39:34;;;;;;;9.32;3.00;;;;;;;;;;4937594;28;89911;-86
2023/12/09 00:42:01;;;;;;;9.35;2.70;;;;;;;;;;4949414;28;92200;-86
2023/12/09 00:44:27;;;;;;;8.82;2.70;;;;;;;;;;4954629;28;88360;-88
2023/12/09 00:46:54;;;;;;;10.18;3.10;;;;;;;;;;4949747;28;89466;-87
2023/12/09 00:49:21;;;;;;;11.25;3.08;;;;;;;;;;4951675;28;88112;-86
2023/12/09 00:51:47;;;;;;;8.80;3.05;;;;;;;;;;4949934;28;88043;-87
2023/12/09 00:54:14;;;;;;;9.88;2.83;;;;;;;;;;4950367;28;87615;-85
2023/12/09 00:56:40;;;;;;;8.95;3.17;;;;;;;;;;4945826;28;90842;-85
2023/12/09 00:59:07;;;;;;;10.32;3.10;;;;;;;;;;4944754;28;88634;-85
2023/12/09 01:01:34;;;;;;;10.82;2.92;;;;;;;;;;4930600;28;87651;-86
2023/12/09 01:04:01;;;;;;;9.32;2.88;;;;;;;;;;4928651;28;94364;-84
2023/12/09 01:06:28;;;;;;;8.93;3.10;;;;;;;;;;4933810;28;88673;-85
2023/12/09 01:08:55;;;;;;;9.68;2.80;;;;;;;;;;4930612;28;87638;-86
2023/12/09 01:11:23;;;;;;;7.68;2.90;;;;;;;;;;4930577;28;88695;-85
2023/12/09 01:13:49;;;;;;;7.80;2.83;;;;;;;;;;4927114;28;88057;-85
2023/12/09 01:16:15;;;;;;;10.02;2.70;;;;;;;;;;4945054;28;90774;-85
2023/12/09 01:18:42;;;;;;;10.23;3.15;;;;;;;;;;4927703;28;88755;-84
2023/12/09 01:21:08;;;;;;;9.68;2.80;;;;;;;;;;4928832;28;87668;-85
2023/12/09 01:23:35;;;;;;;8.77;2.95;;;;;;;;;;4935200;28;88633;-85
2023/12/09 01:26:02;;;;;;;11.05;2.88;;;;;;;;;;4946902;28;88846;-84
2023/12/09 01:28:28;;;;;;;7.22;2.90;;;;;;;;;;4951094;28;87936;-85
2023/12/09 01:30:55;;;;;;;6.90;2.70;;;;;;;;;;4950732;28;90143;-85
2023/12/09 01:33:21;;;;;;;8.35;3.10;;;;;;;;;;4935676;28;87779;-85
2023/12/09 01:35:48;;;;;;;9.18;2.60;;;;;;;;;;4934745;28;90928;-84
2023/12/09 01:38:15;;;;;;;7.90;2.50;;;;;;;;;;4951400;28;89399;-84
2023/12/09 01:40:42;;;;;;;7.85;2.65;;;;;;;;;;4951527;28;87045;-84
2023/12/09 01:43:11;;;;;;;9.10;2.85;;;;;;;;;;4951889;28;87853;-85
2023/12/09 01:45:38;;;;;;;8.25;2.70;;;;;;;;;;4951211;28;88899;-85
2023/12/09 01:48:04;;;;;;;7.90;2.50;;;;;;;;;;4954723;28;88510;-85
2023/12/09 01:50:31;;;;;;;9.48;2.85;;;;;;;;;;4953098;28;88096;-86
2023/12/09 01:52:58;;;;;;;17.50;3.00;;;;;;;;;;4930924;28;88806;-81
2023/12/09 01:55:25;;;;;;;10.20;2.95;;;;;;;;;;4935693;28;88941;-83
2023/12/09 01:57:52;;;;;;;7.63;2.65;;;;;;;;;;4950796;28;88649;-82
2023/12/09 02:00:19;;;;;;;8.95;2.67;;;;;;;;;;4950595;28;87709;-83
2023/12/09 02:02:47;;;;;;;8.48;2.40;;;;;;;;;;4951215;28;87850;-81
2023/12/09 02:05:14;;;;;;;10.55;2.88;;;;;;;;;;4949003;28;90122;-81
2023/12/09 02:07:41;;;;;;;7.75;2.83;;;;;;;;;;4933245;28;89150;-82
2023/12/09 02:10:07;;;;;;;8.73;2.67;;;;;;;;;;4951733;28;90083;-82
2023/12/09 02:12:42;;;;;;;8.18;2.65;;;;;;;;;;4949281;28;88777;-83
2023/12/09 02:15:14;;;;;;;9.80;2.65;;;;;;;;;;4948064;28;90602;-83
2023/12/09 02:17:42;;;;;;;8.27;2.58;;;;;;;;;;4948307;28;88330;-83
2023/12/09 02:20:13;;;;;;;10.10;2.40;;;;;;;;;;4948949;28;87918;-83
2023/12/09 02:22:39;;;;;;;7.93;2.42;;;;;;;;;;4949814;28;91139;-84
2023/12/09 02:25:06;;;;;;;9.88;2.95;;;;;;;;;;4934686;28;90594;-84
2023/12/09 02:27:55;;;;;;;7.13;2.40;;;;;;;;;;4950183;28;87671;-84
2023/12/09 02:30:31;;;;;;;9.50;2.55;;;;;;;;;;4950387;28;92457;-83
2023/12/09 02:32:59;;;;;;;8.27;2.63;;;;;;;;;;4952749;28;90651;-84
2023/12/09 02:35:25;;;;;;;;;;;;;;;;;;4950164;28;87610;-84
2023/12/09 02:37:53;;;;;;;8.27;2.40;;;;;;;;;;4950094;28;106313;-87
2023/12/09 02:40:20;;;;;;;8.02;2.45;;;;;;;;;;4951801;28;88101;-86
2023/12/09 02:42:46;;;;;;;19.20;2.70;;;;;;;;;;4952202;28;87877;-86
2023/12/09 02:45:13;;;;;;;9.68;3.05;;;;;;;;;;4951790;28;87876;-87
2023/12/09 02:47:40;;;;;;;10.45;2.47;;;;;;;;;;4951196;28;88046;-87
2023/12/09 02:50:06;;;;;;;9.07;2.63;;;;;;;;;;4952344;28;88557;-86
2023/12/09 02:52:33;;;;;;;10.95;2.55;;;;;;;;;;4934339;28;90903;-86
2023/12/09 02:54:59;;;;;;;8.88;2.63;;;;;;;;;;4953107;28;88848;-86
2023/12/09 02:57:26;;;;;;;7.18;2.70;;;;;;;;;;4950668;28;90645;-86
2023/12/09 02:59:52;;;;;;;7.97;2.50;;;;;;;;;;4951158;28;87920;-86
2023/12/09 03:02:19;;;;;;;9.27;2.40;;;;;;;;;;4949725;28;88712;-86
2023/12/09 03:04:45;;;;;;;8.82;2.47;;;;;;;;;;4951590;28;88042;-84
2023/12/09 03:07:12;;;;;;;10.65;2.65;;;;;;;;;;4950782;28;87693;-87
2023/12/09 03:09:39;;;;;;;8.05;2.63;;;;;;;;;;4950405;28;88234;-86
2023/12/09 03:12:05;;;;;;;9.73;2.50;;;;;;;;;;4952045;28;88381;-85
2023/12/09 03:14:32;;;;;;;8.55;2.60;;;;;;;;;;4949658;28;89292;-85
2023/12/09 03:16:58;;;;;;;8.93;2.65;;;;;;;;;;4953263;28;90323;-85
2023/12/09 03:19:25;;;;;;;7.43;2.33;;;;;;;;;;4948967;28;87071;-83
2023/12/09 03:21:52;;;;;;;7.07;2.03;;;;;;;;;;4947590;28;87957;-82
2023/12/09 03:24:18;;;;;;;8.35;2.50;;;;;;;;;;4949410;28;88870;-85
2023/12/09 03:26:48;;;;;;;8.75;2.22;;;;;;;;;;4933270;28;91908;-85
2023/12/09 03:29:15;;;;;;;10.98;2.60;;;;;;;;;;4950783;28;94610;-85
2023/12/09 03:31:42;;;;;;;9.30;2.53;;;;;;;;;;4949342;28;91482;-84
2023/12/09 03:34:08;;;;;;;8.75;2.70;;;;;;;;;;4951280;28;87794;-84
2023/12/09 03:36:35;;;;;;;8.45;2.83;;;;;;;;;;4951540;28;88477;-84
2023/12/09 03:39:01;;;;;;;8.38;2.40;;;;;;;;;;4952418;28;91097;-85
2023/12/09 03:41:28;;;;;;;8.02;2.22;;;;;;;;;;4951405;28;87557;-84
2023/12/09 03:43:55;;;;;;;10.55;2.58;;;;;;;;;;4950200;28;87530;-84
2023/12/09 03:46:21;;;;;;;10.27;2.60;;;;;;;;;;4949292;28;89289;-83
2023/12/09 03:48:48;;;;;;;9.52;2.80;;;;;;;;;;4949586;28;88226;-85
2023/12/09 03:51:15;;;;;;;10.48;2.50;;;;;;;;;;4933157;28;92004;-84
2023/12/09 03:53:42;;;;;;;9.60;2.50;;;;;;;;;;4949089;28;88093;-85
2023/12/09 03:56:11;;;;;;;9.77;2.90;;;;;;;;;;4951202;28;88100;-85
2023/12/09 03:58:38;;;;;;;14.63;2.63;;;;;;;;;;4948828;28;90807;-85
2023/12/09 04:01:04;;;;;;;8.88;2.40;;;;;;;;;;4930702;28;88492;-86
2023/12/09 04:03:31;;;;;;;8.23;2.15;;;;;;;;;;4947025;28;90086;-85
2023/12/09 04:05:58;;;;;;;7.68;2.67;;;;;;;;;;4931827;28;88265;-85
2023/12/09 04:08:25;;;;;;;9.45;2.65;;;;;;;;;;4929075;28;90286;-84
2023/12/09 04:10:52;;;;;;;9.27;2.72;;;;;;;;;;4930704;28;87833;-84
2023/12/09 04:13:19;;;;;;;9.18;2.50;;;;;;;;;;4930009;28;87600;-84
2023/12/09 04:15:45;;;;;;;9.55;2.60;;;;;;;;;;4913698;28;90444;-87
2023/12/09 04:18:12;;;;;;;10.60;2.97;;;;;;;;;;4927088;28;90317;-87
2023/12/09 04:20:39;;;;;;;7.90;2.45;;;;;;;;;;4939282;28;87613;-84
2023/12/09 04:23:05;;;;;;;11.68;2.60;;;;;;;;;;4929444;28;90853;-84
2023/12/09 04:25:32;;;;;;;7.80;2.50;;;;;;;;;;4946413;28;87843;-85
2023/12/09 04:27:58;;;;;;;6.47;2.10;;;;;;;;;;4949469;28;88521;-86
2023/12/09 04:30:25;;;;;;;11.45;2.85;;;;;;;;;;4950356;28;88929;-88
2023/12/09 04:32:52;;;;;;;8.25;2.30;;;;;;;;;;4951502;28;87130;-88
2023/12/09 04:35:18;;;;;;;10.80;2.42;;;;;;;;;;4950184;28;87979;-85
2023/12/09 04:37:45;;;;;;;9.85;2.47;;;;;;;;;;4947934;28;89696;-86
2023/12/09 04:40:11;;;;;;;8.20;2.63;;;;;;;;;;4949444;28;88235;-84
2023/12/09 04:42:40;;;;;;;8.18;2.53;;;;;;;;;;4952928;28;88949;-84
2023/12/09 04:45:07;;;;;;;9.88;2.85;;;;;;;;;;4948845;28;90075;-85
2023/12/09 04:47:34;;;;;;;8.23;2.42;;;;;;;;;;4948792;28;91343;-85
2023/12/09 04:50:00;;;;;;;8.98;2.60;;;;;;;;;;4947732;28;95383;-85
2023/12/09 04:52:27;;;;;;;9.05;2.50;;;;;;;;;;4950100;28;87952;-85
2023/12/09 04:54:54;;;;;;;8.07;2.28;;;;;;;;;;4947872;28;90051;-86
2023/12/09 04:57:21;;;;;;;6.47;2.40;;;;;;;;;;4945597;28;89937;-85
2023/12/09 04:59:48;;;;;;;9.88;2.42;;;;;;;;;;4927977;28;87627;-85
2023/12/09 05:02:15;;;;;;;7.20;2.20;;;;;;;;;;4929429;28;88064;-84
2023/12/09 05:04:42;;;;;;;8.07;2.50;;;;;;;;;;4932739;28;91265;-85
2023/12/09 05:07:08;;;;;;;8.18;2.20;;;;;;;;;;4933582;28;88120;-85
2023/12/09 05:09:35;;;;;;;7.75;2.42;;;;;;;;;;4931594;28;88280;-83
2023/12/09 05:12:02;;;;;;;8.13;2.30;;;;;;;;;;4933846;28;87742;-85
2023/12/09 05:14:28;;;;;;;8.40;2.85;;;;;;;;;;4933730;28;87753;-85
2023/12/09 05:16:55;;;;;;;8.30;2.47;;;;;;;;;;4934051;28;88155;-85
2023/12/09 05:19:22;;;;;;;8.57;2.50;;;;;;;;;;4951702;28;88144;-85
2023/12/09 05:21:49;;;;;;;8.18;2.40;;;;;;;;;;4934941;28;91099;-85
2023/12/09 05:24:15;;;;;;;9.05;2.25;;;;;;;;;;4953188;28;87826;-85
2023/12/09 05:26:42;;;;;;;8.23;2.33;;;;;;;;;;4956253;28;87728;-84
2023/12/09 05:29:08;;;;;;;7.20;2.15;;;;;;;;;;4950719;28;89515;-85
2023/12/09 05:31:35;;;;;;;8.50;2.67;;;;;;;;;;4951352;28;91893;-84
2023/12/09 05:34:02;;;;;;;8.80;2.70;;;;;;;;;;4967637;28;88576;-85
2023/12/09 05:36:29;;;;;;;7.97;2.55;;;;;;;;;;4952985;28;88323;-86
2023/12/09 05:38:55;;;;;;;9.25;3.20;;;;;;;;;;4952592;28;88377;-85
2023/12/09 05:41:22;;;;;;;9.40;2.80;;;;;;;;;;4951907;28;90451;-86
2023/12/09 05:43:48;;;;;;;8.85;2.60;;;;;;;;;;4951431;28;88113;-87
2023/12/09 05:46:21;;;;;;;9.20;2.70;;;;;;;;;;4953522;28;86964;-87
2023/12/09 05:48:48;;;;;;;13.23;2.72;;;;;;;;;;4954682;28;88000;-86
2023/12/09 05:51:15;;;;;;;7.30;2.83;;;;;;;;;;4952047;28;88775;-87
2023/12/09 05:53:41;;;;;;;12.00;2.60;;;;;;;;;;4950243;28;90397;-86
2023/12/09 05:56:09;;;;;;;10.32;2.58;;;;;;;;;;4953076;28;87674;-83
2023/12/09 05:58:36;;;;;;;8.25;2.33;;;;;;;;;;4952049;28;87658;-86
2023/12/09 06:01:03;;;;;;;8.80;2.65;;;;;;;;;;4936056;28;90333;-86
2023/12/09 06:03:30;;;;;;;10.20;2.30;;;;;;;;;;4951299;28;89391;-86
2023/12/09 06:05:57;;;;;;;8.85;2.35;;;;;;;;;;4935129;28;89347;-86
2023/12/09 06:08:24;;;;;;;7.32;2.20;;;;;;;;;;4953812;28;90983;-85
2023/12/09 06:10:51;;;;;;;7.38;2.20;;;;;;;;;;4952804;28;90066;-85
2023/12/09 06:13:17;;;;;;;8.85;2.47;;;;;;;;;;4934720;28;89820;-86
2023/12/09 06:15:44;;;;;;;8.88;2.35;;;;;;;;;;4950419;28;88364;-86
2023/12/09 06:18:14;;;;;;;6.85;2.40;;;;;;;;;;4934138;28;89874;-86
2023/12/09 06:20:41;;;;;;;8.88;2.53;;;;;;;;;;4950576;28;89967;-85
2023/12/09 06:23:07;;;;;;;8.35;2.17;;;;;;;;;;4951856;28;88257;-85
2023/12/09 06:25:34;;;;;;;9.27;2.15;;;;;;;;;;4950856;28;87946;-83
2023/12/09 06:28:01;;;;;;;10.60;2.38;;;;;;;;;;4951565;28;92710;-85
2023/12/09 06:30:28;;;;;;;8.93;2.65;;;;;;;;;;4953177;28;90367;-83
2023/12/09 06:32:54;;;;;;;6.68;2.20;;;;;;;;;;4951680;28;89137;-85
2023/12/09 06:35:23;;;;;;;10.55;2.80;;;;;;;;;;4951377;28;90115;-88
2023/12/09 06:37:50;;;;;;;9.48;2.50;;;;;;;;;;4949902;28;88230;-87
2023/12/09 06:40:16;;;;;;;6.97;2.40;;;;;;;;;;4950592;28;88209;-88
2023/12/09 06:42:43;;;;;;;12.07;2.60;;;;;;;;;;4949731;28;90835;-87
2023/12/09 06:45:10;;;;;;;11.50;2.60;;;;;;;;;;4951275;28;87773;-87
2023/12/09 06:47:36;;;;;;;8.75;2.38;;;;;;;;;;4951917;28;87754;-86
2023/12/09 06:50:03;;;;;;;6.25;2.13;;;;;;;;;;4951892;28;88527;-87
2023/12/09 06:52:30;;;;;;;9.40;2.30;;;;;;;;;;4953487;28;88237;-87
2023/12/09 06:54:56;;;;;;;8.82;2.58;;;;;;;;;;4934531;28;90658;-87
2023/12/09 06:57:23;;;;;;;8.73;2.35;;;;;;;;;;4952052;28;87622;-87
2023/12/09 06:59:50;;;;;;;8.88;2.45;;;;;;;;;;4949719;28;89224;-87
2023/12/09 07:02:16;;;;;;;8.05;2.35;;;;;;;;;;4950902;28;90115;-88
2023/12/09 07:04:43;;;;;;;9.57;2.20;;;;;;;;;;4949950;28;89135;-87
2023/12/09 07:07:09;;;;;;;9.15;2.50;;;;;;;;;;4950361;28;90868;-88
2023/12/09 07:09:47;;;;;;;8.00;2.17;;;;;;;;;;4934446;28;90954;-87
2023/12/09 07:12:13;;;;;;;7.15;2.63;;;;;;;;;;4951062;28;88425;-88
2023/12/09 07:14:40;;;;;;;8.38;2.40;;;;;;;;;;4950826;28;87959;-86
2023/12/09 07:17:06;;;;;;;8.20;2.80;;;;;;;;;;4932992;28;87629;-86
2023/12/09 07:19:33;;;;;;;8.30;2.38;;;;;;;;;;4929814;28;90181;-86
2023/12/09 07:22:00;;;;;;;9.50;2.40;;;;;;;;;;4930858;28;88748;-86
2023/12/09 07:24:26;;;;;;;8.82;2.50;;;;;;;;;;4914748;28;88793;-85
2023/12/09 07:26:53;;;;;;;8.48;2.40;;;;;;;;;;4931160;28;87920;-86
2023/12/09 07:29:19;;;;;;;8.70;2.50;;;;;;;;;;4913711;28;91054;-87
2023/12/09 07:31:46;;;;;;;13.80;2.55;;;;;;;;;;4929974;28;88646;-86
2023/12/09 07:34:16;;;;;;;7.78;2.40;;;;;;;;;;4931341;28;88950;-87
2023/12/09 07:36:43;;;;;;;7.82;2.33;;;;;;;;;;4917143;28;90770;-87
2023/12/09 07:39:10;;;;;;;8.57;2.33;;;;;;;;;;4934203;28;88001;-87
2023/12/09 07:41:36;;;;;;;9.07;2.38;;;;;;;;;;4950047;28;89026;-85
2023/12/09 07:44:03;;;;;;;7.28;2.00;;;;;;;;;;4950349;28;87647;-87
2023/12/09 07:46:30;;;;;;;7.72;2.30;;;;;;;;;;4949689;28;89241;-85
2023/12/09 07:48:57;;;;;;;7.95;1.95;;;;;;;;;;4950422;28;86938;-86
2023/12/09 07:51:23;;;;;;;8.02;2.10;;;;;;;;;;4950987;28;87961;-86
2023/12/09 07:53:50;;;;;;;8.65;2.35;;;;;;;;;;4948224;28;90869;-86
2023/12/09 07:56:17;;;;;;;6.97;2.20;;;;;;;;;;4948911;28;91313;-86
2023/12/09 07:58:45;;;;;;;6.82;2.20;;;;;;;;;;4948410;28;87996;-86
2023/12/09 08:01:12;;;;;;;8.13;1.98;;;;;;;;;;4945579;28;89150;-84
2023/12/09 08:03:38;;;;;;;11.73;2.85;;;;;;;;;;4927400;28;89165;-83
2023/12/09 08:06:06;;;;;;;9.15;2.30;;;;;;;;;;4930982;28;88148;-85
2023/12/09 08:08:33;;;;;;;10.98;2.40;;;;;;;;;;4944887;28;88621;-87
2023/12/09 08:11:01;;;;;;;22.48;2.53;;;;;;;;;;4944935;28;88042;-84
2023/12/09 08:13:27;;;;;;;;;;;;;;;;;;4948505;28;87408;-83
2023/12/09 08:15:54;;;;;;;11.20;2.20;;;;;;;;;;4947724;28;91971;-84
2023/12/09 08:18:20;;;;;;;6.28;1.83;;;;;;;;;;4950465;28;88219;-84
2023/12/09 08:20:47;;;;;;;7.85;2.00;;;;;;;;;;4947186;28;89034;-84
2023/12/09 08:23:14;;;;;;;7.68;1.92;;;;;;;;;;4948453;28;87635;-84
2023/12/09 08:25:43;;;;;;;7.72;1.63;;;;;;;;;;4946960;28;88038;-85
2023/12/09 08:28:10;;;;;;;8.50;2.00;;;;;;;;;;4930597;28;90850;-84
2023/12/09 08:30:39;;;;;;;8.15;2.00;;;;;;;;;;4948508;28;87856;-84
2023/12/09 08:33:05;;;;;;;6.90;1.90;;;;;;;;;;4946653;28;89323;-84
2023/12/09 08:35:32;;;;;;;6.07;2.03;;;;;;;;;;4947798;28;87730;-85
2023/12/09 08:37:59;;;;;;;7.82;2.20;;;;;;;;;;4946684;28;87210;-83
2023/12/09 08:40:25;;;;;;;12.93;2.10;;;;;;;;;;4948659;28;87516;-81
2023/12/09 08:42:52;;;;;;;11.50;2.10;;;;;;;;;;4945090;28;87565;-82
2023/12/09 08:45:19;;;;;;;11.55;2.50;;;;;;;;;;4943575;28;88622;-81
2023/12/09 08:47:46;;;;;;;8.25;2.10;;;;;;;;;;4944340;28;88260;-81
2023/12/09 08:50:14;;;;;;;10.60;2.17;;;;;;;;;;4945052;28;88045;-80
2023/12/09 08:52:53;;;;;;;7.55;2.05;;;;;;;;;;4945896;28;88930;-81
2023/12/09 08:55:21;;;;;;;5.53;1.85;;;;;;;;;;4943623;28;89645;-80
2023/12/09 08:57:48;;;;;;;6.03;1.85;;;;;;;;;;4939382;28;87973;-80
2023/12/09 09:00:20;;;;;;;8.00;2.00;;;;;;;;;;4940991;28;90503;-79
2023/12/09 09:02:47;;;;;;;6.97;2.00;;;;;;;;;;4930273;28;87891;-87
2023/12/09 09:05:14;;;;;;;8.38;2.20;;;;;;;;;;4925925;28;87901;-82
2023/12/09 09:07:43;;;;;;;8.98;2.42;;;;;;;;;;4927437;28;90623;-83
2023/12/09 09:10:10;;;;;;;11.70;2.50;;;;;;;;;;4927751;28;88805;-82
2023/12/09 09:12:36;;;;;;;7.82;2.00;;;;;;;;;;4946979;28;88201;-83
2023/12/09 09:15:03;;;;;;;8.73;2.28;;;;;;;;;;4946407;28;87736;-83
2023/12/09 09:17:34;;;;;;;9.57;2.20;;;;;;;;;;4948330;28;87675;-83
2023/12/09 09:20:03;;;;;;;8.00;2.22;;;;;;;;;;4946391;28;92122;-83
2023/12/09 09:22:30;;;;;;;8.27;2.22;;;;;;;;;;4945810;28;90814;-83
2023/12/09 09:24:58;;;;;;;;;;;;;;;;;;4933404;28;88842;-86
2023/12/09 09:27:25;;;;;;;5.55;1.77;;;;;;;;;;4931263;28;113346;-86
2023/12/09 09:29:52;;;;;;;10.95;2.33;;;;;;;;;;4927626;28;87689;-85
2023/12/09 09:32:20;;;;;;;7.25;2.10;;;;;;;;;;4943716;28;90764;-83
2023/12/09 09:34:48;;;;;;;8.18;2.10;;;;;;;;;;4942817;28;89373;-84
2023/12/09 09:37:15;;;;;;;8.73;2.15;;;;;;;;;;4944604;28;88449;-83
2023/12/09 09:39:41;;;;;;;5.88;1.70;;;;;;;;;;4927215;28;90158;-85
2023/12/09 09:42:08;;;;;;;5.45;1.98;;;;;;;;;;4944651;28;90759;-86
2023/12/09 09:44:43;;;;;;;8.30;2.10;;;;;;;;;;4944912;28;89565;-87
2023/12/09 09:47:10;;;;;;;7.82;2.10;;;;;;;;;;4949110;28;88025;-87
2023/12/09 09:49:37;;;;;;;7.68;2.45;;;;;;;;;;4945172;28;87661;-84
2023/12/09 09:52:07;;;;;;;9.05;2.20;;;;;;;;;;4949441;28;88407;-85
2023/12/09 09:54:34;;;;;;;6.78;2.10;;;;;;;;;;4947996;28;89502;-83
2023/12/09 09:57:03;;;;;;;7.47;2.20;;;;;;;;;;4948338;28;90037;-84
2023/12/09 09:59:31;;;;;;;6.50;1.90;;;;;;;;;;4943942;28;94249;-85
2023/12/09 10:01:57;;;;;;;8.23;1.92;;;;;;;;;;4928892;28;89731;-86
2023/12/09 10:04:27;;;;;;;7.07;2.10;;;;;;;;;;4945071;28;88713;-88
2023/12/09 10:06:55;;;;;;;8.73;2.38;;;;;;;;;;4931056;28;90511;-86
2023/12/09 10:09:22;;;;;;;6.68;2.13;;;;;;;;;;4919323;28;89957;-86
2023/12/09 10:11:49;;;;;;;9.90;2.30;;;;;;;;;;4930701;28;90819;-85
2023/12/09 10:14:16;;;;;;;8.32;2.10;;;;;;;;;;4948221;28;89526;-85
2023/12/09 10:16:43;;;;;;;7.28;2.05;;;;;;;;;;4949869;28;87173;-84
2023/12/09 10:19:12;;;;;;;7.05;2.00;;;;;;;;;;4948322;28;87689;-86
2023/12/09 10:21:40;;;;;;;6.88;2.08;;;;;;;;;;4947775;28;88307;-83
2023/12/09 10:24:07;;;;;;;6.72;1.80;;;;;;;;;;4947635;28;88539;-85
2023/12/09 10:26:34;;;;;;;6.90;1.77;;;;;;;;;;4951429;28;88185;-86
2023/12/09 10:29:00;;;;;;;8.27;2.00;;;;;;;;;;4932608;28;91106;-85
2023/12/09 10:31:27;;;;;;;7.40;1.80;;;;;;;;;;4945829;28;88282;-84
2023/12/09 10:33:55;;;;;;;8.02;2.00;;;;;;;;;;4930864;28;90615;-85
2023/12/09 10:36:22;;;;;;;5.55;1.63;;;;;;;;;;4949044;28;88482;-85
2023/12/09 10:38:51;;;;;;;5.70;1.85;;;;;;;;;;4948410;28;88085;-86
2023/12/09 10:41:18;;;;;;;7.20;2.00;;;;;;;;;;4949809;28;87681;-85
2023/12/09 10:43:45;;;;;;;6.20;2.13;;;;;;;;;;4947962;28;87711;-86
2023/12/09 10:46:13;;;;;;;;;;;;;;;;;;4950212;28;88349;-86
2023/12/09 10:48:41;;;;;;;6.05;2.10;;;;;;;;;;4949767;28;116924;-85
2023/12/09 10:51:08;;;;;;;7.15;2.20;;;;;;;;;;4954622;28;87672;-86
2023/12/09 10:53:35;;;;;;;6.55;2.00;;;;;;;;;;4950565;28;88307;-86
2023/12/09 10:56:02;;;;;;;6.20;1.90;;;;;;;;;;4933016;28;94250;-86
2023/12/09 10:58:28;;;;;;;5.80;2.22;;;;;;;;;;4948220;28;88608;-85
2023/12/09 11:00:56;;;;;;;6.15;1.92;;;;;;;;;;4949897;28;88457;-86
2023/12/09 11:03:23;;;;;;;5.47;1.80;;;;;;;;;;4948493;28;87974;-85
2023/12/09 11:05:51;;;;;;;6.35;1.83;;;;;;;;;;4950028;28;88961;-87
2023/12/09 11:08:19;;;;;;;6.32;1.95;;;;;;;;;;4947506;28;89733;-85
2023/12/09 11:10:46;;;;;;;6.03;2.00;;;;;;;;;;4947581;28;89699;-85
2023/12/09 11:13:12;;;;;;;5.95;1.67;;;;;;;;;;4950497;28;88678;-85
2023/12/09 11:15:39;;;;;;;7.07;1.85;;;;;;;;;;4953664;28;88274;-85
2023/12/09 11:18:07;;;;;;;;;;;;;;;;;;4947581;28;89427;-85
2023/12/09 11:20:41;;;;;;;5.63;1.73;;;;;;;;;;4948373;28;98095;-85
2023/12/09 11:23:10;;;;;;;5.97;1.80;;;;;;;;;;4949280;28;87753;-85
2023/12/09 11:25:40;;;;;;;5.43;1.90;;;;;;;;;;4947489;28;89722;-85
2023/12/09 11:28:09;;;;;;;7.03;1.75;;;;;;;;;;4948201;28;88128;-85
2023/12/09 11:30:38;;;;;;;5.15;1.60;;;;;;;;;;4948272;28;87009;-83
2023/12/09 11:33:05;;;;;;;5.88;1.60;;;;;;;;;;4963477;28;87639;-84
2023/12/09 11:35:33;;;;;;;4.93;1.63;;;;;;;;;;4952107;28;88585;-84
2023/12/09 11:38:00;;;;;;;5.07;1.70;;;;;;;;;;4946314;28;91085;-84
2023/12/09 11:40:30;;;;;;;6.07;1.80;;;;;;;;;;4951944;28;90840;-85
2023/12/09 11:42:57;;;;;;;5.13;1.60;;;;;;;;;;4950174;28;87812;-85
2023/12/09 11:45:24;;;;;;;5.35;1.60;;;;;;;;;;4947121;28;90035;-85
2023/12/09 11:47:51;;;;;;;;;;;;;;;;;;4948289;28;88325;-84
2023/12/09 11:50:18;;;;;;;6.38;1.60;;;;;;;;;;4948641;28;87888;-84
2023/12/09 11:52:45;;;;;;;5.53;1.40;;;;;;;;;;4947642;28;87789;-86
2023/12/09 11:55:12;;;;;;;;;;;;;;;;;;4948514;28;90507;-85
2023/12/09 11:57:39;;;;;;;4.70;1.52;;;;;;;;;;4950672;28;91838;-85
2023/12/09 12:00:06;;;;;;;6.10;1.63;;;;;;;;;;4947152;28;88291;-85
2023/12/09 12:02:35;;;;;;;4.85;1.40;;;;;;;;;;4948092;28;88384;-84
2023/12/09 12:05:02;;;;;;;5.32;1.60;;;;;;;;;;4943388;28;89108;-84
2023/12/09 12:07:29;;;;;;;5.32;1.50;;;;;;;;;;4944910;28;91210;-84
2023/12/09 12:09:55;;;;;;;4.75;1.63;;;;;;;;;;4926000;28;88672;-83
2023/12/09 12:12:25;;;;;;;3.97;1.55;;;;;;;;;;4927639;28;88736;-85
2023/12/09 12:14:52;;;;;;;4.78;1.70;;;;;;;;;;4926213;28;92263;-85
2023/12/09 12:17:21;;;;;;;4.85;1.65;;;;;;;;;;4931370;28;87706;-85
2023/12/09 12:19:48;;;;;;;5.50;1.70;;;;;;;;;;4944044;28;89805;-85
2023/12/09 12:22:15;;;;;;;3.75;1.52;;;;;;;;;;4945297;28;88776;-85
2023/12/09 12:24:45;;;;;;;4.15;1.48;;;;;;;;;;4947743;28;88461;-85
2023/12/09 12:27:11;;;;;;;4.68;1.50;;;;;;;;;;4946724;28;89478;-85
2023/12/09 12:29:38;;;;;;;5.55;1.63;;;;;;;;;;4944495;28;88509;-84
2023/12/09 12:32:05;;;;;;;;;;;;;;;;;;4944686;28;93899;-84
2023/12/09 12:34:32;;;;;;;7.35;1.70;;;;;;;;;;4945403;28;91624;-86
2023/12/09 12:36:59;;;;;;;7.18;1.38;;;;;;;;;;4947424;28;87702;-86
2023/12/09 12:39:26;;;;;;;7.60;1.75;;;;;;;;;;4948457;28;88093;-86
2023/12/09 12:41:54;;;;;;;5.25;1.63;;;;;;;;;;4937381;28;88146;-86
2023/12/09 12:44:21;;;;;;;8.32;1.50;;;;;;;;;;4948486;28;87255;-87
2023/12/09 12:46:47;;;;;;;7.05;1.50;;;;;;;;;;4941893;28;88366;-86
2023/12/09 12:49:17;;;;;;;4.65;1.40;;;;;;;;;;4929898;28;87670;-87
2023/12/09 12:51:44;;;;;;;4.97;1.40;;;;;;;;;;4942833;28;90139;-85
2023/12/09 12:54:13;;;;;;;4.47;1.38;;;;;;;;;;4941255;28;88219;-86
2023/12/09 12:56:46;;;;;;;4.53;1.80;;;;;;;;;;4926557;28;89311;-86
2023/12/09 12:59:13;;;;;;;5.82;1.58;;;;;;;;;;4941550;28;88592;-86
2023/12/09 13:01:40;;;;;;;7.32;1.60;;;;;;;;;;4926311;28;90592;-85
2023/12/09 13:04:10;;;;;;;5.88;1.67;;;;;;;;;;4925411;28;94962;-86
2023/12/09 13:06:37;;;;;;;5.78;1.50;;;;;;;;;;4934467;28;90689;-85
2023/12/09 13:09:04;;;;;;;7.95;1.48;;;;;;;;;;4918651;28;88943;-84
2023/12/09 13:11:31;;;;;;;5.78;1.40;;;;;;;;;;4925473;28;88199;-84
2023/12/09 13:13:57;;;;;;;6.25;1.45;;;;;;;;;;4942468;28;88310;-85
2023/12/09 13:16:24;;;;;;;5.10;1.50;;;;;;;;;;4945450;28;88716;-84
2023/12/09 13:18:51;;;;;;;6.28;1.65;;;;;;;;;;4946533;28;88584;-85
2023/12/09 13:21:20;;;;;;;4.82;1.60;;;;;;;;;;4946560;28;88331;-83
2023/12/09 13:23:47;;;;;;;6.18;1.58;;;;;;;;;;4947278;28;87880;-83
2023/12/09 13:26:13;;;;;;;7.95;1.60;;;;;;;;;;4947997;28;88853;-84
2023/12/09 13:28:40;;;;;;;6.20;1.50;;;;;;;;;;4948129;28;94866;-83
2023/12/09 13:31:07;;;;;;;3.90;1.40;;;;;;;;;;4948785;28;88024;-82
2023/12/09 13:33:33;;;;;;;4.65;1.40;;;;;;;;;;4949306;28;87799;-84
2023/12/09 13:36:00;;;;;;;5.38;1.38;;;;;;;;;;4950896;28;92297;-82
2023/12/09 13:38:28;;;;;;;5.32;1.40;;;;;;;;;;4950001;28;88433;-82
2023/12/09 13:41:03;;;;;;;7.22;1.50;;;;;;;;;;4929776;28;88970;-83
2023/12/09 13:43:29;;;;;;;5.40;1.40;;;;;;;;;;4946455;28;89368;-82
2023/12/09 13:45:56;;;;;;;6.90;1.65;;;;;;;;;;4951269;28;88084;-83
2023/12/09 13:48:22;;;;;;;5.07;1.30;;;;;;;;;;4926810;28;87655;-84
2023/12/09 13:50:49;;;;;;;4.43;1.27;;;;;;;;;;4924386;28;90947;-83
2023/12/09 13:53:19;;;;;;;5.07;1.27;;;;;;;;;;4924875;28;90302;-84
2023/12/09 13:55:46;;;;;;;4.30;1.42;;;;;;;;;;4943884;28;89054;-84
2023/12/09 13:58:14;;;;;;;4.82;1.40;;;;;;;;;;4948524;28;88308;-83
2023/12/09 14:00:42;;;;;;;5.15;1.30;;;;;;;;;;4946752;28;88329;-84
2023/12/09 14:03:09;;;;;;;5.53;1.30;;;;;;;;;;4947918;28;87701;-83
2023/12/09 14:05:36;;;;;;;5.07;1.60;;;;;;;;;;4944199;28;88622;-83
2023/12/09 14:08:03;;;;;;;3.50;1.17;;;;;;;;;;4950309;28;91098;-83
2023/12/09 14:10:30;;;;;;;6.45;1.30;;;;;;;;;;4946547;28;87926;-84
2023/12/09 14:12:56;;;;;;;3.58;1.00;;;;;;;;;;4945826;28;87793;-84
2023/12/09 14:15:27;;;;;;;3.38;1.10;;;;;;;;;;4945620;28;89367;-84
2023/12/09 14:17:55;;;;;;;4.78;1.40;;;;;;;;;;4945765;28;88055;-84
2023/12/09 14:20:24;;;;;;;3.45;1.15;;;;;;;;;;4948140;28;88049;-83
2023/12/09 14:22:51;;;;;;;3.95;1.05;;;;;;;;;;4947472;28;86982;-83
2023/12/09 14:25:18;;;;;;;3.53;1.05;;;;;;;;;;4948687;28;87884;-83
2023/12/09 14:27:45;;;;;;;2.97;1.13;;;;;;;;;;4948866;28;87968;-84
2023/12/09 14:30:12;;;;;;;2.38;0.98;;;;;;;;;;4947441;28;90106;-84
2023/12/09 14:32:43;;;;;;;3.72;1.10;;;;;;;;;;4947864;28;89542;-84
2023/12/09 14:35:12;;;;;;;3.80;1.10;;;;;;;;;;4947248;28;88031;-83
2023/12/09 14:37:39;;;;;;;4.63;1.30;;;;;;;;;;4929953;28;91196;-84
2023/12/09 14:40:06;;;;;;;2.90;1.20;;;;;;;;;;4947373;28;88753;-83
2023/12/09 14:42:33;;;;;;;3.88;1.15;;;;;;;;;;4947347;28;88629;-83